sensor_id;sensor_type;location;lat;lon;timestamp;P1;durP1;ratioP1;P2;durP2;ratioP2
13693;SDS011;6919;52.344;14.518;2022-07-09T00:01:17;3.67;;;1.90;;
13693;SDS011;6919;52.344;14.518;2022-07-09T00:03:46;5.30;;;1.90;;
13693;SDS011;6919;52.344;14.518;2022-07-09T00:06:14;2.47;;;1.50;;
13693;SDS011;6919;52.344;14.518;2022-07-09T00:08:42;5.90;;;1.90;;
13693;SDS011;6919;52.344;14.518;2022-07-09T00:11:10;3.10;;;1.73;;
13693;SDS011;6919;52.344;14.518;2022-07-09T00:13:39;4.10;;;1.90;;
13693;SDS011;6919;52.344;14.518;2022-07-09T00:16:08;3.77;;;2.00;;
13693;SDS011;6919;52.344;14.518;2022-07-09T00:18:37;6.40;;;2.13;;
13693;SDS011;6919;52.344;14.518;2022-07-09T00:21:05;4.80;;;2.27;;
13693;SDS011;6919;52.344;14.518;2022-07-09T00:23:33;3.07;;;2.10;;
13693;SDS011;6919;52.344;14.518;2022-07-09T00:26:01;7.03;;;1.93;;
13693;SDS011;6919;52.344;14.518;2022-07-09T00:28:30;4.47;;;2.13;;
13693;SDS011;6919;52.344;14.518;2022-07-09T00:30:58;5.93;;;1.83;;
13693;SDS011;6919;52.344;14.518;2022-07-09T00:33:28;5.00;;;1.90;;
13693;SDS011;6919;52.344;14.518;2022-07-09T00:35:56;2.50;;;1.87;;
13693;SDS011;6919;52.344;14.518;2022-07-09T00:38:25;4.23;;;2.23;;
13693;SDS011;6919;52.344;14.518;2022-07-09T00:40:53;3.37;;;1.83;;
13693;SDS011;6919;52.344;14.518;2022-07-09T00:43:21;5.13;;;2.50;;
13693;SDS011;6919;52.344;14.518;2022-07-09T00:45:50;5.23;;;1.97;;
13693;SDS011;6919;52.344;14.518;2022-07-09T00:48:18;5.07;;;2.20;;
13693;SDS011;6919;52.344;14.518;2022-07-09T00:50:48;4.53;;;1.90;;
13693;SDS011;6919;52.344;14.518;2022-07-09T00:53:17;3.63;;;2.00;;
13693;SDS011;6919;52.344;14.518;2022-07-09T00:55:49;3.80;;;2.10;;
13693;SDS011;6919;52.344;14.518;2022-07-09T00:58:18;6.43;;;2.00;;
13693;SDS011;6919;52.344;14.518;2022-07-09T01:00:48;2.90;;;2.00;;
13693;SDS011;6919;52.344;14.518;2022-07-09T01:03:17;7.97;;;2.27;;
13693;SDS011;6919;52.344;14.518;2022-07-09T01:05:45;6.43;;;2.43;;
13693;SDS011;6919;52.344;14.518;2022-07-09T01:08:15;4.90;;;2.07;;
13693;SDS011;6919;52.344;14.518;2022-07-09T01:10:43;2.97;;;2.00;;
13693;SDS011;6919;52.344;14.518;2022-07-09T01:13:13;6.73;;;2.37;;
13693;SDS011;6919;52.344;14.518;2022-07-09T01:15:42;6.87;;;2.63;;
13693;SDS011;6919;52.344;14.518;2022-07-09T01:18:10;3.60;;;2.30;;
13693;SDS011;6919;52.344;14.518;2022-07-09T01:20:41;5.13;;;2.13;;
13693;SDS011;6919;52.344;14.518;2022-07-09T01:23:09;5.87;;;2.70;;
13693;SDS011;6919;52.344;14.518;2022-07-09T01:25:38;3.90;;;2.07;;
13693;SDS011;6919;52.344;14.518;2022-07-09T01:28:11;4.03;;;2.30;;
13693;SDS011;6919;52.344;14.518;2022-07-09T01:30:40;5.00;;;2.50;;
13693;SDS011;6919;52.344;14.518;2022-07-09T01:33:09;4.57;;;2.43;;
13693;SDS011;6919;52.344;14.518;2022-07-09T01:35:37;6.53;;;2.50;;
13693;SDS011;6919;52.344;14.518;2022-07-09T01:38:06;5.07;;;2.27;;
13693;SDS011;6919;52.344;14.518;2022-07-09T01:40:35;4.23;;;2.40;;
13693;SDS011;6919;52.344;14.518;2022-07-09T01:43:03;4.80;;;2.10;;
13693;SDS011;6919;52.344;14.518;2022-07-09T01:45:31;5.47;;;2.43;;
13693;SDS011;6919;52.344;14.518;2022-07-09T01:47:59;6.23;;;2.20;;
13693;SDS011;6919;52.344;14.518;2022-07-09T01:50:29;5.43;;;2.50;;
13693;SDS011;6919;52.344;14.518;2022-07-09T01:52:58;3.40;;;2.57;;
13693;SDS011;6919;52.344;14.518;2022-07-09T01:55:27;6.03;;;2.70;;
13693;SDS011;6919;52.344;14.518;2022-07-09T01:57:56;3.30;;;2.10;;
13693;SDS011;6919;52.344;14.518;2022-07-09T02:00:24;3.67;;;2.30;;
13693;SDS011;6919;52.344;14.518;2022-07-09T02:02:54;6.60;;;2.43;;
13693;SDS011;6919;52.344;14.518;2022-07-09T02:05:23;4.67;;;2.40;;
13693;SDS011;6919;52.344;14.518;2022-07-09T02:07:51;5.67;;;2.27;;
13693;SDS011;6919;52.344;14.518;2022-07-09T02:10:20;9.10;;;2.63;;
13693;SDS011;6919;52.344;14.518;2022-07-09T02:12:50;3.93;;;2.10;;
13693;SDS011;6919;52.344;14.518;2022-07-09T02:15:19;5.13;;;2.20;;
13693;SDS011;6919;52.344;14.518;2022-07-09T02:17:48;3.73;;;2.37;;
13693;SDS011;6919;52.344;14.518;2022-07-09T02:20:16;7.07;;;2.60;;
13693;SDS011;6919;52.344;14.518;2022-07-09T02:22:44;4.97;;;2.33;;
13693;SDS011;6919;52.344;14.518;2022-07-09T02:25:12;8.60;;;3.10;;
13693;SDS011;6919;52.344;14.518;2022-07-09T02:27:41;8.73;;;2.83;;
13693;SDS011;6919;52.344;14.518;2022-07-09T02:30:11;3.53;;;1.87;;
13693;SDS011;6919;52.344;14.518;2022-07-09T02:32:39;6.70;;;2.40;;
13693;SDS011;6919;52.344;14.518;2022-07-09T02:35:08;8.43;;;2.80;;
13693;SDS011;6919;52.344;14.518;2022-07-09T02:37:36;3.80;;;2.37;;
13693;SDS011;6919;52.344;14.518;2022-07-09T02:40:05;7.90;;;2.43;;
13693;SDS011;6919;52.344;14.518;2022-07-09T02:42:35;4.93;;;2.60;;
13693;SDS011;6919;52.344;14.518;2022-07-09T02:45:04;4.73;;;2.43;;
13693;SDS011;6919;52.344;14.518;2022-07-09T02:47:35;5.97;;;2.40;;
13693;SDS011;6919;52.344;14.518;2022-07-09T02:50:04;4.47;;;2.17;;
13693;SDS011;6919;52.344;14.518;2022-07-09T02:52:34;6.30;;;2.60;;
13693;SDS011;6919;52.344;14.518;2022-07-09T02:55:02;10.43;;;2.97;;
13693;SDS011;6919;52.344;14.518;2022-07-09T02:57:31;8.40;;;2.63;;
13693;SDS011;6919;52.344;14.518;2022-07-09T02:59:59;9.27;;;2.73;;
13693;SDS011;6919;52.344;14.518;2022-07-09T03:02:27;10.40;;;2.40;;
13693;SDS011;6919;52.344;14.518;2022-07-09T03:04:57;7.27;;;2.20;;
13693;SDS011;6919;52.344;14.518;2022-07-09T03:07:25;9.77;;;2.50;;
13693;SDS011;6919;52.344;14.518;2022-07-09T03:09:53;5.77;;;2.50;;
13693;SDS011;6919;52.344;14.518;2022-07-09T03:12:22;5.13;;;2.40;;
13693;SDS011;6919;52.344;14.518;2022-07-09T03:14:50;7.47;;;2.57;;
13693;SDS011;6919;52.344;14.518;2022-07-09T03:17:18;4.47;;;2.40;;
13693;SDS011;6919;52.344;14.518;2022-07-09T03:19:47;8.53;;;2.40;;
13693;SDS011;6919;52.344;14.518;2022-07-09T03:22:18;5.77;;;2.90;;
13693;SDS011;6919;52.344;14.518;2022-07-09T03:24:46;6.87;;;2.80;;
13693;SDS011;6919;52.344;14.518;2022-07-09T03:27:14;5.80;;;2.33;;
13693;SDS011;6919;52.344;14.518;2022-07-09T03:29:43;13.10;;;3.20;;
13693;SDS011;6919;52.344;14.518;2022-07-09T03:32:11;20.70;;;4.20;;
13693;SDS011;6919;52.344;14.518;2022-07-09T03:34:39;9.00;;;2.60;;
13693;SDS011;6919;52.344;14.518;2022-07-09T03:37:07;11.30;;;3.07;;
13693;SDS011;6919;52.344;14.518;2022-07-09T03:39:37;11.03;;;2.80;;
13693;SDS011;6919;52.344;14.518;2022-07-09T03:42:05;9.07;;;2.73;;
13693;SDS011;6919;52.344;14.518;2022-07-09T03:44:36;6.27;;;2.60;;
13693;SDS011;6919;52.344;14.518;2022-07-09T03:47:05;9.20;;;2.87;;
13693;SDS011;6919;52.344;14.518;2022-07-09T03:49:34;8.20;;;3.03;;
13693;SDS011;6919;52.344;14.518;2022-07-09T03:52:02;4.73;;;2.57;;
13693;SDS011;6919;52.344;14.518;2022-07-09T03:54:47;6.90;;;2.70;;
13693;SDS011;6919;52.344;14.518;2022-07-09T03:57:15;7.13;;;2.57;;
13693;SDS011;6919;52.344;14.518;2022-07-09T03:59:45;5.67;;;2.80;;
13693;SDS011;6919;52.344;14.518;2022-07-09T04:02:14;4.53;;;2.50;;
13693;SDS011;6919;52.344;14.518;2022-07-09T04:04:42;8.47;;;2.50;;
13693;SDS011;6919;52.344;14.518;2022-07-09T04:07:10;10.30;;;3.27;;
13693;SDS011;6919;52.344;14.518;2022-07-09T04:09:39;7.30;;;3.13;;
13693;SDS011;6919;52.344;14.518;2022-07-09T04:12:08;7.57;;;3.00;;
13693;SDS011;6919;52.344;14.518;2022-07-09T04:14:37;10.47;;;3.23;;
13693;SDS011;6919;52.344;14.518;2022-07-09T04:17:05;11.07;;;3.43;;
13693;SDS011;6919;52.344;14.518;2022-07-09T04:19:33;16.43;;;3.83;;
13693;SDS011;6919;52.344;14.518;2022-07-09T04:22:02;11.63;;;3.10;;
13693;SDS011;6919;52.344;14.518;2022-07-09T04:24:31;9.07;;;2.77;;
13693;SDS011;6919;52.344;14.518;2022-07-09T04:26:59;7.40;;;2.80;;
13693;SDS011;6919;52.344;14.518;2022-07-09T04:29:29;6.93;;;2.67;;
13693;SDS011;6919;52.344;14.518;2022-07-09T04:31:57;10.33;;;2.87;;
13693;SDS011;6919;52.344;14.518;2022-07-09T04:34:25;12.30;;;3.23;;
13693;SDS011;6919;52.344;14.518;2022-07-09T04:36:54;7.60;;;3.00;;
13693;SDS011;6919;52.344;14.518;2022-07-09T04:39:22;6.23;;;2.40;;
13693;SDS011;6919;52.344;14.518;2022-07-09T04:41:51;4.80;;;2.47;;
13693;SDS011;6919;52.344;14.518;2022-07-09T04:44:19;6.63;;;2.83;;
13693;SDS011;6919;52.344;14.518;2022-07-09T04:46:49;8.87;;;3.20;;
13693;SDS011;6919;52.344;14.518;2022-07-09T04:49:17;9.37;;;2.87;;
13693;SDS011;6919;52.344;14.518;2022-07-09T04:51:47;13.57;;;3.20;;
13693;SDS011;6919;52.344;14.518;2022-07-09T04:54:15;5.73;;;2.53;;
13693;SDS011;6919;52.344;14.518;2022-07-09T04:56:43;10.13;;;2.73;;
13693;SDS011;6919;52.344;14.518;2022-07-09T04:59:11;10.93;;;3.33;;
13693;SDS011;6919;52.344;14.518;2022-07-09T05:01:39;6.00;;;2.47;;
13693;SDS011;6919;52.344;14.518;2022-07-09T05:04:09;5.33;;;2.30;;
13693;SDS011;6919;52.344;14.518;2022-07-09T05:06:37;6.27;;;2.77;;
13693;SDS011;6919;52.344;14.518;2022-07-09T05:09:06;6.27;;;2.77;;
13693;SDS011;6919;52.344;14.518;2022-07-09T05:11:34;5.87;;;2.63;;
13693;SDS011;6919;52.344;14.518;2022-07-09T05:14:02;6.60;;;2.80;;
13693;SDS011;6919;52.344;14.518;2022-07-09T05:16:31;8.17;;;2.83;;
13693;SDS011;6919;52.344;14.518;2022-07-09T05:18:59;9.47;;;2.57;;
13693;SDS011;6919;52.344;14.518;2022-07-09T05:21:29;9.83;;;3.27;;
13693;SDS011;6919;52.344;14.518;2022-07-09T05:23:57;10.13;;;3.27;;
13693;SDS011;6919;52.344;14.518;2022-07-09T05:26:27;8.27;;;2.53;;
13693;SDS011;6919;52.344;14.518;2022-07-09T05:28:56;8.97;;;2.50;;
13693;SDS011;6919;52.344;14.518;2022-07-09T05:31:24;8.30;;;2.77;;
13693;SDS011;6919;52.344;14.518;2022-07-09T05:34:01;8.77;;;2.33;;
13693;SDS011;6919;52.344;14.518;2022-07-09T05:36:32;12.77;;;2.93;;
13693;SDS011;6919;52.344;14.518;2022-07-09T05:39:01;8.90;;;2.47;;
13693;SDS011;6919;52.344;14.518;2022-07-09T05:41:29;8.37;;;2.50;;
13693;SDS011;6919;52.344;14.518;2022-07-09T05:43:57;7.30;;;2.17;;
13693;SDS011;6919;52.344;14.518;2022-07-09T05:46:29;9.03;;;2.67;;
13693;SDS011;6919;52.344;14.518;2022-07-09T05:48:57;6.23;;;2.60;;
13693;SDS011;6919;52.344;14.518;2022-07-09T05:51:26;5.83;;;2.13;;
13693;SDS011;6919;52.344;14.518;2022-07-09T05:53:55;9.37;;;2.43;;
13693;SDS011;6919;52.344;14.518;2022-07-09T05:56:23;6.70;;;1.93;;
13693;SDS011;6919;52.344;14.518;2022-07-09T05:58:51;6.20;;;2.47;;
13693;SDS011;6919;52.344;14.518;2022-07-09T06:01:20;6.77;;;2.23;;
13693;SDS011;6919;52.344;14.518;2022-07-09T06:03:52;8.60;;;2.77;;
13693;SDS011;6919;52.344;14.518;2022-07-09T06:06:20;8.90;;;2.50;;
13693;SDS011;6919;52.344;14.518;2022-07-09T06:08:49;11.30;;;2.80;;
13693;SDS011;6919;52.344;14.518;2022-07-09T06:11:19;8.73;;;2.90;;
13693;SDS011;6919;52.344;14.518;2022-07-09T06:13:48;4.97;;;2.13;;
13693;SDS011;6919;52.344;14.518;2022-07-09T06:16:16;7.37;;;2.30;;
13693;SDS011;6919;52.344;14.518;2022-07-09T06:18:44;6.00;;;2.40;;
13693;SDS011;6919;52.344;14.518;2022-07-09T06:21:12;4.83;;;2.10;;
13693;SDS011;6919;52.344;14.518;2022-07-09T06:23:41;8.13;;;2.70;;
13693;SDS011;6919;52.344;14.518;2022-07-09T06:26:09;5.13;;;1.97;;
13693;SDS011;6919;52.344;14.518;2022-07-09T06:28:38;5.37;;;2.30;;
13693;SDS011;6919;52.344;14.518;2022-07-09T06:31:07;6.80;;;2.10;;
13693;SDS011;6919;52.344;14.518;2022-07-09T06:33:35;6.33;;;2.20;;
13693;SDS011;6919;52.344;14.518;2022-07-09T06:36:03;5.47;;;2.10;;
13693;SDS011;6919;52.344;14.518;2022-07-09T06:38:32;7.07;;;2.60;;
13693;SDS011;6919;52.344;14.518;2022-07-09T06:41:21;8.73;;;2.10;;
13693;SDS011;6919;52.344;14.518;2022-07-09T06:43:51;6.30;;;2.07;;
13693;SDS011;6919;52.344;14.518;2022-07-09T06:46:19;6.03;;;2.00;;
13693;SDS011;6919;52.344;14.518;2022-07-09T06:48:47;5.40;;;2.20;;
13693;SDS011;6919;52.344;14.518;2022-07-09T06:51:15;5.80;;;2.03;;
13693;SDS011;6919;52.344;14.518;2022-07-09T06:53:44;6.00;;;2.40;;
13693;SDS011;6919;52.344;14.518;2022-07-09T06:56:12;7.33;;;2.40;;
13693;SDS011;6919;52.344;14.518;2022-07-09T06:58:40;4.97;;;2.43;;
13693;SDS011;6919;52.344;14.518;2022-07-09T07:01:09;7.00;;;2.27;;
13693;SDS011;6919;52.344;14.518;2022-07-09T07:03:38;5.30;;;2.20;;
13693;SDS011;6919;52.344;14.518;2022-07-09T07:06:06;7.43;;;2.37;;
13693;SDS011;6919;52.344;14.518;2022-07-09T07:08:34;6.37;;;2.20;;
13693;SDS011;6919;52.344;14.518;2022-07-09T07:11:03;5.07;;;1.93;;
13693;SDS011;6919;52.344;14.518;2022-07-09T07:13:32;4.47;;;2.20;;
13693;SDS011;6919;52.344;14.518;2022-07-09T07:16:00;7.97;;;2.37;;
13693;SDS011;6919;52.344;14.518;2022-07-09T07:18:29;8.50;;;2.27;;
13693;SDS011;6919;52.344;14.518;2022-07-09T07:20:58;6.77;;;2.03;;
13693;SDS011;6919;52.344;14.518;2022-07-09T07:23:27;8.60;;;2.47;;
13693;SDS011;6919;52.344;14.518;2022-07-09T07:25:57;4.80;;;2.20;;
13693;SDS011;6919;52.344;14.518;2022-07-09T07:28:26;5.87;;;1.97;;
13693;SDS011;6919;52.344;14.518;2022-07-09T07:30:54;6.47;;;2.20;;
13693;SDS011;6919;52.344;14.518;2022-07-09T07:33:23;5.47;;;2.40;;
13693;SDS011;6919;52.344;14.518;2022-07-09T07:35:52;7.13;;;2.33;;
13693;SDS011;6919;52.344;14.518;2022-07-09T07:38:21;6.97;;;2.00;;
13693;SDS011;6919;52.344;14.518;2022-07-09T07:40:53;8.67;;;2.40;;
13693;SDS011;6919;52.344;14.518;2022-07-09T07:43:22;4.50;;;2.33;;
13693;SDS011;6919;52.344;14.518;2022-07-09T07:45:50;6.40;;;2.30;;
13693;SDS011;6919;52.344;14.518;2022-07-09T07:48:18;6.83;;;2.17;;
13693;SDS011;6919;52.344;14.518;2022-07-09T07:50:46;3.83;;;1.90;;
13693;SDS011;6919;52.344;14.518;2022-07-09T07:53:16;4.13;;;1.97;;
13693;SDS011;6919;52.344;14.518;2022-07-09T07:55:44;4.90;;;2.17;;
13693;SDS011;6919;52.344;14.518;2022-07-09T07:58:13;5.80;;;2.03;;
13693;SDS011;6919;52.344;14.518;2022-07-09T08:00:41;4.50;;;1.73;;
13693;SDS011;6919;52.344;14.518;2022-07-09T08:03:09;7.90;;;2.53;;
13693;SDS011;6919;52.344;14.518;2022-07-09T08:05:37;5.03;;;2.40;;
13693;SDS011;6919;52.344;14.518;2022-07-09T08:08:06;4.23;;;2.10;;
13693;SDS011;6919;52.344;14.518;2022-07-09T08:10:35;4.63;;;2.00;;
13693;SDS011;6919;52.344;14.518;2022-07-09T08:13:03;4.47;;;2.10;;
13693;SDS011;6919;52.344;14.518;2022-07-09T08:15:32;6.20;;;2.20;;
13693;SDS011;6919;52.344;14.518;2022-07-09T08:18:00;2.43;;;1.70;;
13693;SDS011;6919;52.344;14.518;2022-07-09T08:20:28;5.63;;;1.80;;
13693;SDS011;6919;52.344;14.518;2022-07-09T08:22:56;3.83;;;1.90;;
13693;SDS011;6919;52.344;14.518;2022-07-09T08:25:25;5.17;;;1.80;;
13693;SDS011;6919;52.344;14.518;2022-07-09T08:27:55;3.53;;;1.73;;
13693;SDS011;6919;52.344;14.518;2022-07-09T08:30:23;5.07;;;2.30;;
13693;SDS011;6919;52.344;14.518;2022-07-09T08:32:51;6.03;;;2.67;;
13693;SDS011;6919;52.344;14.518;2022-07-09T08:35:20;7.00;;;2.07;;
13693;SDS011;6919;52.344;14.518;2022-07-09T08:37:48;10.60;;;2.57;;
13693;SDS011;6919;52.344;14.518;2022-07-09T08:40:16;6.40;;;2.00;;
13693;SDS011;6919;52.344;14.518;2022-07-09T08:42:44;4.70;;;2.07;;
13693;SDS011;6919;52.344;14.518;2022-07-09T08:45:14;7.00;;;2.60;;
13693;SDS011;6919;52.344;14.518;2022-07-09T08:47:45;4.37;;;2.27;;
13693;SDS011;6919;52.344;14.518;2022-07-09T08:50:14;5.27;;;2.20;;
13693;SDS011;6919;52.344;14.518;2022-07-09T08:52:42;4.67;;;2.13;;
13693;SDS011;6919;52.344;14.518;2022-07-09T08:55:11;5.70;;;2.33;;
13693;SDS011;6919;52.344;14.518;2022-07-09T08:57:39;5.40;;;2.40;;
13693;SDS011;6919;52.344;14.518;2022-07-09T09:00:08;6.60;;;2.37;;
13693;SDS011;6919;52.344;14.518;2022-07-09T09:02:38;6.37;;;2.33;;
13693;SDS011;6919;52.344;14.518;2022-07-09T09:05:08;6.57;;;2.97;;
13693;SDS011;6919;52.344;14.518;2022-07-09T09:07:39;7.17;;;2.40;;
13693;SDS011;6919;52.344;14.518;2022-07-09T09:10:07;6.80;;;2.67;;
13693;SDS011;6919;52.344;14.518;2022-07-09T09:12:48;13.73;;;3.00;;
13693;SDS011;6919;52.344;14.518;2022-07-09T09:15:17;5.60;;;2.10;;
13693;SDS011;6919;52.344;14.518;2022-07-09T09:17:47;4.97;;;2.23;;
13693;SDS011;6919;52.344;14.518;2022-07-09T09:20:16;3.67;;;2.17;;
13693;SDS011;6919;52.344;14.518;2022-07-09T09:22:46;4.17;;;1.80;;
13693;SDS011;6919;52.344;14.518;2022-07-09T09:25:17;4.07;;;2.00;;
13693;SDS011;6919;52.344;14.518;2022-07-09T09:27:49;3.63;;;2.00;;
13693;SDS011;6919;52.344;14.518;2022-07-09T09:30:20;3.73;;;2.00;;
13693;SDS011;6919;52.344;14.518;2022-07-09T09:32:56;6.53;;;2.00;;
13693;SDS011;6919;52.344;14.518;2022-07-09T09:35:30;4.33;;;1.80;;
13693;SDS011;6919;52.344;14.518;2022-07-09T09:38:01;4.17;;;1.63;;
13693;SDS011;6919;52.344;14.518;2022-07-09T09:40:30;6.33;;;2.27;;
13693;SDS011;6919;52.344;14.518;2022-07-09T09:42:58;5.50;;;2.30;;
13693;SDS011;6919;52.344;14.518;2022-07-09T09:45:31;7.33;;;2.03;;
13693;SDS011;6919;52.344;14.518;2022-07-09T09:48:03;4.20;;;2.20;;
13693;SDS011;6919;52.344;14.518;2022-07-09T09:50:33;7.03;;;2.30;;
13693;SDS011;6919;52.344;14.518;2022-07-09T09:53:06;3.80;;;1.77;;
13693;SDS011;6919;52.344;14.518;2022-07-09T09:55:37;3.37;;;2.03;;
13693;SDS011;6919;52.344;14.518;2022-07-09T09:58:06;3.63;;;1.57;;
13693;SDS011;6919;52.344;14.518;2022-07-09T10:00:36;3.83;;;1.73;;
13693;SDS011;6919;52.344;14.518;2022-07-09T10:03:06;2.93;;;1.43;;
13693;SDS011;6919;52.344;14.518;2022-07-09T10:05:39;7.23;;;2.17;;
13693;SDS011;6919;52.344;14.518;2022-07-09T10:08:10;5.53;;;2.23;;
13693;SDS011;6919;52.344;14.518;2022-07-09T10:10:38;4.23;;;2.07;;
13693;SDS011;6919;52.344;14.518;2022-07-09T10:13:21;10.57;;;2.27;;
13693;SDS011;6919;52.344;14.518;2022-07-09T10:15:49;4.90;;;1.90;;
13693;SDS011;6919;52.344;14.518;2022-07-09T10:18:19;3.90;;;1.87;;
13693;SDS011;6919;52.344;14.518;2022-07-09T10:20:54;3.17;;;1.80;;
13693;SDS011;6919;52.344;14.518;2022-07-09T10:23:23;4.03;;;1.90;;
13693;SDS011;6919;52.344;14.518;2022-07-09T10:25:52;7.50;;;2.40;;
13693;SDS011;6919;52.344;14.518;2022-07-09T10:28:23;7.27;;;2.60;;
13693;SDS011;6919;52.344;14.518;2022-07-09T10:30:52;3.67;;;1.93;;
13693;SDS011;6919;52.344;14.518;2022-07-09T10:33:23;2.80;;;1.83;;
13693;SDS011;6919;52.344;14.518;2022-07-09T10:36:08;7.07;;;2.23;;
13693;SDS011;6919;52.344;14.518;2022-07-09T10:38:40;3.97;;;1.87;;
13693;SDS011;6919;52.344;14.518;2022-07-09T10:41:22;3.33;;;2.03;;
13693;SDS011;6919;52.344;14.518;2022-07-09T10:43:51;5.50;;;2.03;;
13693;SDS011;6919;52.344;14.518;2022-07-09T10:46:20;3.07;;;1.80;;
13693;SDS011;6919;52.344;14.518;2022-07-09T10:48:49;3.53;;;1.87;;
13693;SDS011;6919;52.344;14.518;2022-07-09T10:51:18;4.37;;;2.20;;
13693;SDS011;6919;52.344;14.518;2022-07-09T10:53:46;4.57;;;2.10;;
13693;SDS011;6919;52.344;14.518;2022-07-09T10:56:16;4.50;;;1.80;;
13693;SDS011;6919;52.344;14.518;2022-07-09T10:58:45;3.70;;;1.90;;
13693;SDS011;6919;52.344;14.518;2022-07-09T11:01:18;3.40;;;1.80;;
13693;SDS011;6919;52.344;14.518;2022-07-09T11:03:51;3.53;;;1.73;;
13693;SDS011;6919;52.344;14.518;2022-07-09T11:06:20;2.30;;;1.23;;
13693;SDS011;6919;52.344;14.518;2022-07-09T11:08:49;3.70;;;1.60;;
13693;SDS011;6919;52.344;14.518;2022-07-09T11:11:20;3.47;;;1.77;;
13693;SDS011;6919;52.344;14.518;2022-07-09T11:13:49;4.37;;;1.80;;
13693;SDS011;6919;52.344;14.518;2022-07-09T11:16:21;3.23;;;1.43;;
13693;SDS011;6919;52.344;14.518;2022-07-09T11:18:51;2.90;;;1.80;;
13693;SDS011;6919;52.344;14.518;2022-07-09T11:21:21;3.37;;;1.77;;
13693;SDS011;6919;52.344;14.518;2022-07-09T11:23:50;3.10;;;1.50;;
13693;SDS011;6919;52.344;14.518;2022-07-09T11:26:19;3.13;;;1.90;;
13693;SDS011;6919;52.344;14.518;2022-07-09T11:28:48;3.27;;;1.70;;
13693;SDS011;6919;52.344;14.518;2022-07-09T11:31:18;6.33;;;2.40;;
13693;SDS011;6919;52.344;14.518;2022-07-09T11:33:46;2.83;;;1.90;;
13693;SDS011;6919;52.344;14.518;2022-07-09T11:36:37;3.70;;;1.83;;
13693;SDS011;6919;52.344;14.518;2022-07-09T11:39:06;4.20;;;2.17;;
13693;SDS011;6919;52.344;14.518;2022-07-09T11:41:41;2.73;;;1.80;;
13693;SDS011;6919;52.344;14.518;2022-07-09T11:44:11;3.90;;;2.00;;
13693;SDS011;6919;52.344;14.518;2022-07-09T11:47:01;2.93;;;2.00;;
13693;SDS011;6919;52.344;14.518;2022-07-09T11:49:32;2.70;;;1.80;;
13693;SDS011;6919;52.344;14.518;2022-07-09T11:52:03;4.00;;;2.00;;
13693;SDS011;6919;52.344;14.518;2022-07-09T11:54:53;1.33;;;1.23;;
13693;SDS011;6919;52.344;14.518;2022-07-09T11:57:26;2.27;;;1.60;;
13693;SDS011;6919;52.344;14.518;2022-07-09T11:59:55;2.33;;;1.40;;
13693;SDS011;6919;52.344;14.518;2022-07-09T12:02:25;2.83;;;1.67;;
13693;SDS011;6919;52.344;14.518;2022-07-09T12:04:56;2.37;;;1.47;;
13693;SDS011;6919;52.344;14.518;2022-07-09T12:07:26;3.87;;;1.77;;
13693;SDS011;6919;52.344;14.518;2022-07-09T12:09:58;3.17;;;1.60;;
13693;SDS011;6919;52.344;14.518;2022-07-09T12:12:28;2.97;;;1.40;;
13693;SDS011;6919;52.344;14.518;2022-07-09T12:14:56;2.67;;;1.30;;
13693;SDS011;6919;52.344;14.518;2022-07-09T12:17:32;1.60;;;1.43;;
13693;SDS011;6919;52.344;14.518;2022-07-09T12:20:02;3.83;;;1.37;;
13693;SDS011;6919;52.344;14.518;2022-07-09T12:22:35;3.53;;;1.50;;
13693;SDS011;6919;52.344;14.518;2022-07-09T12:25:03;2.90;;;1.50;;
13693;SDS011;6919;52.344;14.518;2022-07-09T12:27:34;1.30;;;1.20;;
13693;SDS011;6919;52.344;14.518;2022-07-09T12:30:02;1.90;;;1.20;;
13693;SDS011;6919;52.344;14.518;2022-07-09T12:32:32;1.87;;;1.60;;
13693;SDS011;6919;52.344;14.518;2022-07-09T12:35:01;2.33;;;1.27;;
13693;SDS011;6919;52.344;14.518;2022-07-09T12:37:29;2.90;;;1.67;;
13693;SDS011;6919;52.344;14.518;2022-07-09T12:39:59;2.27;;;1.40;;
13693;SDS011;6919;52.344;14.518;2022-07-09T12:42:28;3.63;;;1.87;;
13693;SDS011;6919;52.344;14.518;2022-07-09T12:44:56;4.47;;;1.77;;
13693;SDS011;6919;52.344;14.518;2022-07-09T12:47:24;1.83;;;1.20;;
13693;SDS011;6919;52.344;14.518;2022-07-09T12:49:53;3.33;;;1.60;;
13693;SDS011;6919;52.344;14.518;2022-07-09T12:52:21;2.30;;;1.23;;
13693;SDS011;6919;52.344;14.518;2022-07-09T12:54:49;2.87;;;1.50;;
13693;SDS011;6919;52.344;14.518;2022-07-09T12:57:19;3.30;;;1.50;;
13693;SDS011;6919;52.344;14.518;2022-07-09T12:59:47;2.60;;;1.47;;
13693;SDS011;6919;52.344;14.518;2022-07-09T13:02:15;1.97;;;1.27;;
13693;SDS011;6919;52.344;14.518;2022-07-09T13:04:50;2.67;;;1.47;;
13693;SDS011;6919;52.344;14.518;2022-07-09T13:07:18;1.50;;;1.20;;
13693;SDS011;6919;52.344;14.518;2022-07-09T13:09:47;2.85;;;1.50;;
13693;SDS011;6919;52.344;14.518;2022-07-09T13:12:15;4.22;;;1.33;;
13693;SDS011;6919;52.344;14.518;2022-07-09T13:14:46;1.50;;;1.27;;
13693;SDS011;6919;52.344;14.518;2022-07-09T13:17:14;2.65;;;1.30;;
13693;SDS011;6919;52.344;14.518;2022-07-09T13:19:59;2.70;;;1.95;;
13693;SDS011;6919;52.344;14.518;2022-07-09T13:22:28;1.92;;;1.42;;
13693;SDS011;6919;52.344;14.518;2022-07-09T13:24:56;2.92;;;1.40;;
13693;SDS011;6919;52.344;14.518;2022-07-09T13:27:24;2.25;;;1.65;;
13693;SDS011;6919;52.344;14.518;2022-07-09T13:29:54;4.05;;;1.73;;
13693;SDS011;6919;52.344;14.518;2022-07-09T13:32:22;3.05;;;1.63;;
13693;SDS011;6919;52.344;14.518;2022-07-09T13:34:50;2.35;;;1.33;;
13693;SDS011;6919;52.344;14.518;2022-07-09T13:37:19;3.25;;;1.38;;
13693;SDS011;6919;52.344;14.518;2022-07-09T13:39:49;2.22;;;1.33;;
13693;SDS011;6919;52.344;14.518;2022-07-09T13:42:19;3.03;;;1.50;;
13693;SDS011;6919;52.344;14.518;2022-07-09T13:44:47;2.47;;;1.40;;
13693;SDS011;6919;52.344;14.518;2022-07-09T13:47:17;5.35;;;1.70;;
13693;SDS011;6919;52.344;14.518;2022-07-09T13:49:45;4.47;;;1.58;;
13693;SDS011;6919;52.344;14.518;2022-07-09T13:52:13;3.40;;;1.80;;
13693;SDS011;6919;52.344;14.518;2022-07-09T13:54:42;4.20;;;1.90;;
13693;SDS011;6919;52.344;14.518;2022-07-09T13:57:10;3.00;;;1.60;;
13693;SDS011;6919;52.344;14.518;2022-07-09T13:59:39;3.43;;;1.80;;
13693;SDS011;6919;52.344;14.518;2022-07-09T14:02:07;7.70;;;2.20;;
13693;SDS011;6919;52.344;14.518;2022-07-09T14:04:37;4.20;;;2.17;;
13693;SDS011;6919;52.344;14.518;2022-07-09T14:07:06;6.07;;;2.17;;
13693;SDS011;6919;52.344;14.518;2022-07-09T14:09:34;4.63;;;1.90;;
13693;SDS011;6919;52.344;14.518;2022-07-09T14:12:02;4.07;;;1.87;;
13693;SDS011;6919;52.344;14.518;2022-07-09T14:14:31;4.70;;;2.20;;
13693;SDS011;6919;52.344;14.518;2022-07-09T14:16:59;7.17;;;2.30;;
13693;SDS011;6919;52.344;14.518;2022-07-09T14:19:28;5.37;;;2.37;;
13693;SDS011;6919;52.344;14.518;2022-07-09T14:21:58;3.50;;;2.30;;
13693;SDS011;6919;52.344;14.518;2022-07-09T14:24:26;6.83;;;2.20;;
13693;SDS011;6919;52.344;14.518;2022-07-09T14:26:54;4.67;;;2.07;;
13693;SDS011;6919;52.344;14.518;2022-07-09T14:29:23;4.60;;;2.23;;
13693;SDS011;6919;52.344;14.518;2022-07-09T14:31:51;3.67;;;1.90;;
13693;SDS011;6919;52.344;14.518;2022-07-09T14:34:19;2.90;;;1.60;;
13693;SDS011;6919;52.344;14.518;2022-07-09T14:36:49;3.07;;;2.03;;
13693;SDS011;6919;52.344;14.518;2022-07-09T14:39:19;4.47;;;1.37;;
13693;SDS011;6919;52.344;14.518;2022-07-09T14:41:48;3.90;;;1.90;;
13693;SDS011;6919;52.344;14.518;2022-07-09T14:44:16;2.13;;;1.70;;
13693;SDS011;6919;52.344;14.518;2022-07-09T14:46:45;2.50;;;1.57;;
13693;SDS011;6919;52.344;14.518;2022-07-09T14:49:14;2.63;;;1.70;;
13693;SDS011;6919;52.344;14.518;2022-07-09T14:51:42;3.03;;;1.67;;
13693;SDS011;6919;52.344;14.518;2022-07-09T14:54:10;2.97;;;1.80;;
13693;SDS011;6919;52.344;14.518;2022-07-09T14:56:40;2.97;;;1.60;;
13693;SDS011;6919;52.344;14.518;2022-07-09T14:59:08;2.30;;;1.30;;
13693;SDS011;6919;52.344;14.518;2022-07-09T15:01:38;3.43;;;1.73;;